Weather at Bridger Creek Airport

Public forecast

Using degrees Fahrenheit for public forecast. Weather courtesy of forecast.io.

Closest aviation weather report (METAR) to Bridger Creek Airport

Closest report is Central Wyoming Regional Airport, 37.7 nm (69.8 km) WSW.

2023/09/30 01:53 (retrieved 40 minutes ago)

KRIW 300153Z AUTO 05006KT 10SM CLR 17/M02 A2988 RMK AO2 RAE01 SLP077 P0000 T01721017

Closest aviation forecast (TAF) to Bridger Creek Airport

Forecast is more than 6 hours old.

Closest forecast is Ellsworth Air Force Base, 204.5 nm (378.8 km) ENE.

2023/09/29 20:15 Ammendment (retrieved 6 hours ago)

TAF AMD KRCA 282010Z 2820/3001 32012G18KT 9999 SKC QNH2986INS BECMG 2822/2823 32012KT 9999 SKC QNH2990INS BECMG 2909/2910 12008KT 9999 BKN035 QNH2982INS TX22/2822Z TN10/2911Z